地図

経路データ

SID SEASON NUMBER BASIN SUBBASIN NAME ISO_TIME NATURE LAT LON WMO_WIND WMO_PRES WMO_AGENCY TRACK_TYPE DIST2LAND LANDFALL IFLAG USA_AGENCY USA_ATCF_ID USA_LAT USA_LON USA_RECORD USA_STATUS USA_WIND USA_PRES USA_SSHS USA_R34_NE USA_R34_SE USA_R34_SW USA_R34_NW USA_R50_NE USA_R50_SE USA_R50_SW USA_R50_NW USA_R64_NE USA_R64_SE USA_R64_SW USA_R64_NW USA_POCI USA_ROCI USA_RMW USA_EYE TOKYO_LAT TOKYO_LON TOKYO_GRADE TOKYO_WIND TOKYO_PRES TOKYO_R50_DIR TOKYO_R50_LONG TOKYO_R50_SHORT TOKYO_R30_DIR TOKYO_R30_LONG TOKYO_R30_SHORT TOKYO_LAND CMA_LAT CMA_LON CMA_CAT CMA_WIND CMA_PRES HKO_LAT HKO_LON HKO_CAT HKO_WIND HKO_PRES NEWDELHI_LAT NEWDELHI_LON NEWDELHI_GRADE NEWDELHI_WIND NEWDELHI_PRES NEWDELHI_CI NEWDELHI_DP NEWDELHI_POCI REUNION_LAT REUNION_LON REUNION_TYPE REUNION_WIND REUNION_PRES REUNION_TNUM REUNION_CI REUNION_RMW REUNION_R34_NE REUNION_R34_SE REUNION_R34_SW REUNION_R34_NW REUNION_R50_NE REUNION_R50_SE REUNION_R50_SW REUNION_R50_NW REUNION_R64_NE REUNION_R64_SE REUNION_R64_SW REUNION_R64_NW BOM_LAT BOM_LON BOM_TYPE BOM_WIND BOM_PRES BOM_TNUM BOM_CI BOM_RMW BOM_R34_NE BOM_R34_SE BOM_R34_SW BOM_R34_NW BOM_R50_NE BOM_R50_SE BOM_R50_SW BOM_R50_NW BOM_R64_NE BOM_R64_SE BOM_R64_SW BOM_R64_NW BOM_ROCI BOM_POCI BOM_EYE BOM_POS_METHOD BOM_PRES_METHOD NADI_LAT NADI_LON NADI_CAT NADI_WIND NADI_PRES WELLINGTON_LAT WELLINGTON_LON WELLINGTON_WIND WELLINGTON_PRES DS824_LAT DS824_LON DS824_STAGE DS824_WIND DS824_PRES TD9636_LAT TD9636_LON TD9636_STAGE TD9636_WIND TD9636_PRES TD9635_LAT TD9635_LON TD9635_WIND TD9635_PRES TD9635_ROCI NEUMANN_LAT NEUMANN_LON NEUMANN_CLASS NEUMANN_WIND NEUMANN_PRES MLC_LAT MLC_LON MLC_CLASS MLC_WIND MLC_PRES USA_GUST BOM_GUST BOM_GUST_PER REUNION_GUST REUNION_GUST_PER USA_SEAHGT USA_SEARAD_NE USA_SEARAD_SE USA_SEARAD_SW USA_SEARAD_NW STORM_SPEED STORM_DIR
1949293N12142 1949 94 WP MM PATRICIA 1949-10-20 00:00:00 TS 11.6000 141.500 main 1521 1512 __O___________ -1 11.6000 141.500 0 1004 6 287
1949293N12142 1949 94 WP MM PATRICIA 1949-10-20 03:00:00 TS 11.6901 141.200 main 1518 1509 __P___________ -1 11.6901 141.200 0 1003 6 289
1949293N12142 1949 94 WP MM PATRICIA 1949-10-20 06:00:00 TS 11.8000 140.900 main 1516 1512 __O___________ -1 11.8000 140.900 1 23 1002 6 293
1949293N12142 1949 94 WP MM PATRICIA 1949-10-20 09:00:00 TS 11.9425 140.600 main 1514 1514 __P___________ -1 11.9425 140.600 1 23 1002 7 297
1949293N12142 1949 94 WP MM PATRICIA 1949-10-20 12:00:00 TS 12.1000 140.300 main 1524 1521 __O___________ -1 12.1000 140.300 1 23 1002 7 297
1949293N12142 1949 94 WP MM PATRICIA 1949-10-20 15:00:00 TS 12.2425 140.000 main 1524 1518 __P___________ -1 12.2425 140.000 1 23 1002 7 297
1949293N12142 1949 94 WP MM PATRICIA 1949-10-20 18:00:00 TS 12.4000 139.700 main 1518 1491 __O___________ -1 12.4000 139.700 1 23 1002 7 301
1949293N12142 1949 94 WP MM PATRICIA 1949-10-20 21:00:00 TS 12.5924 139.407 main 1491 1461 __P___________ -1 12.5924 139.407 1 26 1001 7 304
1949293N12142 1949 94 WP MM PATRICIA 1949-10-21 00:00:00 TS 12.8000 139.100 main 1461 1430 __O___________ -1 12.8000 139.100 1 29 1001 8 302
1949293N12142 1949 94 WP MM PATRICIA 1949-10-21 03:00:00 TS 13.0000 138.750 main 1432 1392 __P___________ -1 13.0000 138.750 1 33 1000 8 300
1949293N12142 1949 94 WP MM PATRICIA 1949-10-21 06:00:00 TS 13.2000 138.400 main 1392 1364 __O___________ -1 13.2000 138.400 2 38 1000 8 302
1949293N12142 1949 94 WP MM PATRICIA 1949-10-21 09:00:00 TS 13.3999 138.092 main 1364 1336 __P___________ -1 13.3999 138.092 2 38 999 7 304
1949293N12142 1949 94 WP MM PATRICIA 1949-10-21 12:00:00 TS 13.6000 137.800 main 1336 1309 __O___________ -1 13.6000 137.800 2 38 999 7 305
1949293N12142 1949 94 WP MM PATRICIA 1949-10-21 15:00:00 TS 13.8000 137.500 main 1309 1282 __P___________ -1 13.8000 137.500 2 38 998 7 304
1949293N12142 1949 94 WP MM PATRICIA 1949-10-21 18:00:00 TS 14.0000 137.200 main 1282 1254 __O___________ -1 14.0000 137.200 2 38 998 7 305
1949293N12142 1949 94 WP MM PATRICIA 1949-10-21 21:00:00 TS 14.2075 136.893 main 1254 1226 __P___________ -1 14.2075 136.893 2 43 996 7 305
1949293N12142 1949 94 WP MM PATRICIA 1949-10-22 00:00:00 TS 14.4000 136.600 main 1226 1207 __O___________ -1 14.4000 136.600 3 48 995 6 304
1949293N12142 1949 94 WP MM PATRICIA 1949-10-22 03:00:00 TS 14.5574 136.350 main 1199 1180 __P___________ -1 14.5574 136.350 3 48 993 6 302
1949293N12142 1949 94 WP MM PATRICIA 1949-10-22 06:00:00 TS 14.7000 136.100 main 1180 1151 __O___________ -1 14.7000 136.100 3 48 992 6 299
1949293N12142 1949 94 WP MM PATRICIA 1949-10-22 09:00:00 TS 14.8500 135.807 main 1151 1125 __P___________ -1 14.8500 135.807 3 48 990 7 297
1949293N12142 1949 94 WP MM PATRICIA 1949-10-22 12:00:00 TS 15.0000 135.500 main 1125 1097 __O___________ -1 15.0000 135.500 3 48 988 7 297
1949293N12142 1949 94 WP MM PATRICIA 1949-10-22 15:00:00 TS 15.1500 135.200 main 1097 1073 __P___________ -1 15.1500 135.200 3 53 987 7 297
1949293N12142 1949 94 WP MM PATRICIA 1949-10-22 18:00:00 TS 15.3000 134.900 main 1073 1046 __O___________ -1 15.3000 134.900 3 58 986 7 297
1949293N12142 1949 94 WP MM PATRICIA 1949-10-22 21:00:00 TS 15.4425 134.600 main 1046 1015 __P___________ -1 15.4425 134.600 3 58 985 5 247
1949293N12142 1949 94 WP MM PATRICIA 1949-10-23 00:00:00 TS 15.1000 134.400 main 1015 974 O_O______OOO__ jtwc_wp WP171949 14.6000 134.500 40 0 15.6000 134.300 3 58 985 14.6000 134.500 TC 40 14.6000 134.500 2 40 14.6000 134.500 40 980 300 7 241
1949293N12142 1949 94 WP MM PATRICIA 1949-10-23 03:00:00 TS 15.1296 134.008 main 974 937 P_P______PPP__ WP171949 14.7903 133.978 42 0 15.7924 134.022 3 63 984 14.7903 133.978 TC 42 14.8222 134.069 2 42 14.7903 133.978 42 979 300 8 281
1949293N12142 1949 94 WP MM PATRICIA 1949-10-23 06:00:00 TS 15.2585 133.574 main 941 905 O_O______OPO__ jtwc_wp WP171949 15.0000 133.500 45 0 16.0000 133.700 4 68 983 15.0000 133.500 TC 45 15.0453 133.630 2 45 15.0000 133.500 45 979 300 9 290
1949293N12142 1949 94 WP MM PATRICIA 1949-10-23 09:00:00 TS 15.4395 133.144 main 895 870 P_P______PPP__ WP171949 15.2423 133.092 47 0 16.2001 133.265 4 68 982 15.2423 133.092 TC 47 15.2707 133.176 2 47 15.2423 133.092 47 978 300 9 297
1949293N12142 1949 94 WP MM PATRICIA 1949-10-23 12:00:00 TS 15.6800 132.720 main 870 842 O_O______OOO__ jtwc_wp WP171949 15.5000 132.700 50 0 16.4000 132.800 4 68 981 15.5000 132.700 TC 50 15.5000 132.700 2 50 15.5000 132.700 50 977 300 10 300
1949293N12142 1949 94 WP MM PATRICIA 1949-10-23 15:00:00 TS 15.9211 132.277 main 842 807 P_P______PPP__ WP171949 15.7574 132.265 50 0 16.5999 132.392 4 68 980 15.7574 132.265 TC 50 15.7333 132.200 2 52 15.7574 132.265 50 976 360 10 299
1949293N12142 1949 94 WP MM PATRICIA 1949-10-23 18:00:00 TS 16.1531 131.820 main 813 784 O_O______OPO__ jtwc_wp WP171949 16.0000 131.800 50 0 16.8000 132.000 4 68 980 16.0000 131.800 TC 50 15.9653 131.698 2 55 16.0000 131.800 50 975 420 10 296
1949293N12142 1949 94 WP MM PATRICIA 1949-10-23 21:00:00 TS 16.3595 131.335 main 782 755 P_P______PPP__ WP171949 16.2001 131.285 55 0 17.0074 131.600 4 72 979 16.2001 131.285 TC 55 16.1896 131.222 2 57 16.2001 131.285 55 974 420 10 294
1949293N12142 1949 94 WP MM PATRICIA 1949-10-24 00:00:00 TS 16.5600 130.880 main 760 730 O_O______OOO__ jtwc_wp WP171949 16.4000 130.800 60 0 17.2000 131.200 4 77 978 16.4000 130.800 TC 60 16.4000 130.800 2 60 16.4000 130.800 60 973 420 9 298
1949293N12142 1949 94 WP MM PATRICIA 1949-10-24 03:00:00 TS 16.7889 130.494 main 730 712 P_P______PPP__ WP171949 16.6649 130.405 60 0 17.3650 130.785 4 77 976 16.6649 130.405 TC 60 16.5847 130.471 2 61 16.6649 130.405 60 971 450 8 303
1949293N12142 1949 94 WP MM PATRICIA 1949-10-24 06:00:00 TS 16.9913 130.179 main 712 698 O_O______OPO__ jtwc_wp WP171949 16.9000 130.100 60 0 17.5000 130.400 4 77 975 16.9000 130.100 TC 60 16.7567 130.197 2 62 16.9000 130.100 60 970 480 6 301
1949293N12142 1949 94 WP MM PATRICIA 1949-10-24 09:00:00 TS 17.1064 129.951 main 698 677 P_P______PPP__ WP171949 16.9998 129.907 62 0 17.6074 130.085 4 77 974 16.9998 129.907 TC 62 16.9254 129.949 2 63 16.9998 129.907 62 968 450 5 298
1949293N12142 1949 94 WP MM PATRICIA 1949-10-24 12:00:00 TS 17.2200 129.720 main 677 663 O_O______OOO__ jtwc_wp WP171949 17.1000 129.700 65 1 17.7000 129.800 4 77 973 17.1000 129.700 TC 65 17.1000 129.700 3 65 17.1000 129.700 65 966 420 6 299
1949293N12142 1949 94 WP MM PATRICIA 1949-10-24 15:00:00 TS 17.4211 129.361 main 663 643 P_P______PPP__ WP171949 17.3427 129.300 67 1 17.7924 129.507 4 77 971 17.3427 129.300 TC 67 17.2847 129.399 3 67 17.3427 129.300 67 964 420 8 301
1949293N12142 1949 94 WP MM PATRICIA 1949-10-24 18:00:00 TS 17.6355 128.998 main 643 634 O_O______OPO__ jtwc_wp WP171949 17.6000 128.900 70 1 17.9000 129.200 4 77 970 17.6000 128.900 TC 70 17.4775 129.092 3 70 17.6000 128.900 70 963 420 7 303
1949293N12142 1949 94 WP MM PATRICIA 1949-10-24 21:00:00 TS 17.8097 128.733 main 634 626 P_P______PPP__ WP171949 17.7723 128.677 72 1 18.0500 128.843 4 87 965 17.7723 128.677 TC 72 17.6816 128.790 3 72 17.7723 128.677 72 960 450 6 304
1949293N12142 1949 94 WP MM PATRICIA 1949-10-25 00:00:00 TS 17.9600 128.500 main 634 619 O_O______OOO__ jtwc_wp WP171949 17.9000 128.500 75 1 18.2000 128.500 5 97 960 17.9000 128.500 TC 75 17.9000 128.500 4 75 17.9000 128.500 75 957 480 5 298
1949293N12142 1949 94 WP MM PATRICIA 1949-10-25 03:00:00 TS 18.0597 128.240 main 616 598 P_P______PPP__ WP171949 17.9625 128.257 77 1 18.2999 128.242 5 97 955 17.9625 128.257 TC 77 18.1113 128.187 4 78 17.9625 128.257 77 954 540 6 297
1949293N12142 1949 94 WP MM PATRICIA 1949-10-25 06:00:00 TS 18.2080 127.979 main 598 569 O_O______OPO__ jtwc_wp WP171949 18.1000 128.000 80 1 18.4000 128.000 5 97 950 18.1000 128.000 TC 80 18.3402 127.896 4 82 18.1000 128.000 80 952 600 7 310
1949293N12142 1949 94 WP MM PATRICIA 1949-10-25 09:00:00 TS 18.5013 127.694 main 569 549 P_P______PPP__ WP171949 18.4626 127.713 85 2 18.5201 127.678 5 106 945 18.4626 127.713 TC 85 18.5989 127.656 4 86 18.4626 127.713 85 950 540 8 324
1949293N12142 1949 94 WP MM PATRICIA 1949-10-25 12:00:00 TS 18.8600 127.480 main 550 541 O_O______OOO__ jtwc_wp WP171949 18.9000 127.500 90 2 18.7000 127.400 6 116 940 18.9000 127.500 TC 90 18.9000 127.500 4 90 18.9000 127.500 90 949 480 7 338
1949293N12142 1949 94 WP MM PATRICIA 1949-10-25 15:00:00 TS 19.1813 127.404 main 544 544 P_P______PPP__ WP171949 19.2424 127.447 95 2 18.9549 127.248 6 126 935 19.2424 127.447 TC 95 19.2241 127.431 4 95 19.2424 127.447 95 947 480 7 358
1949293N12142 1949 94 WP MM PATRICIA 1949-10-25 18:00:00 TS 19.5389 127.430 main 550 550 O_O______OPO__ jtwc_wp WP171949 19.6000 127.500 100 3 19.3000 127.200 6 136 930 19.6000 127.500 TC 100 19.5947 127.451 4 100 19.6000 127.500 100 945 480 8 5
1949293N12142 1949 94 WP MM PATRICIA 1949-10-25 21:00:00 TS 19.9580 127.489 main 574 574 P_P______PPP__ WP171949 20.0200 127.570 105 3 19.7124 127.190 6 136 930 20.0200 127.570 TC 105 20.0179 127.544 4 105 20.0200 127.570 105 944 480 9 11
1949293N12142 1949 94 WP MM PATRICIA 1949-10-26 00:00:00 TS 20.4400 127.620 main 599 599 O_O______OOO__ jtwc_wp WP171949 20.5000 127.700 110 3 20.2000 127.300 6 136 930 20.5000 127.700 TC 110 20.5000 127.700 4 110 20.5000 127.700 110 943 480 10 16
1949293N12142 1949 94 WP MM PATRICIA 1949-10-26 03:00:00 TS 20.9588 127.801 main 644 644 P_P______PPP__ WP171949 21.0200 127.870 115 4 20.7125 127.548 6 136 930 21.0200 127.870 TC 115 21.0218 127.845 4 112 21.0200 127.870 115 942 480 12 20
1949293N12142 1949 94 WP MM PATRICIA 1949-10-26 06:00:00 TS 21.5404 128.051 main 698 698 O_O______OPO__ jtwc_wp WP171949 21.6000 128.100 120 4 21.3000 127.900 6 136 930 21.6000 128.100 TC 120 21.6018 128.053 4 115 21.6000 128.100 120 942 480 13 22
1949293N12142 1949 94 WP MM PATRICIA 1949-10-26 09:00:00 TS 22.1841 128.337 main 701 701 P_P______PPP__ WP171949 22.2424 128.363 120 4 21.9623 128.263 6 136 930 22.2424 128.363 TC 120 22.2309 128.334 4 117 22.2424 128.363 120 942 450 15 24
1949293N12142 1949 94 WP MM PATRICIA 1949-10-26 12:00:00 TS 22.8600 128.700 main 714 714 O_O______OOO__ jtwc_wp WP171949 22.9000 128.700 120 4 22.7000 128.700 6 136 930 22.9000 128.700 TC 120 22.9000 128.700 4 120 22.9000 128.700 120 943 420 15 29
1949293N12142 1949 94 WP MM PATRICIA 1949-10-26 15:00:00 TS 23.4801 129.111 main 738 738 P_P______PPP__ WP171949 23.4698 129.099 110 3 23.4624 129.213 6 136 930 23.4698 129.099 TC 110 23.5289 129.047 4 112 23.4698 129.099 110 943 450 16 33
1949293N12142 1949 94 WP MM PATRICIA 1949-10-26 18:00:00 TS 24.1603 129.619 main 766 683 O_O______OPO__ jtwc_wp WP171949 24.1000 129.600 100 3 24.3000 129.800 6 136 930 24.1000 129.600 TC 100 24.2016 129.493 4 105 24.1000 129.600 100 944 480 18 34
1949293N12142 1949 94 WP MM PATRICIA 1949-10-26 21:00:00 TS 24.9520 130.185 main 671 580 P_P______PPP__ WP171949 24.8666 130.155 95 2 25.2114 130.370 6 131 932 24.8666 130.155 TC 95 24.9486 130.092 4 97 24.8666 130.155 95 945 480 21 35
1949293N12142 1949 94 WP MM PATRICIA 1949-10-27 00:00:00 TS 25.8800 130.940 main 569 472 O_O______OOO__ jtwc_wp WP171949 25.8000 130.900 90 2 26.2000 131.100 6 126 935 25.8000 130.900 TC 90 25.8000 130.900 4 90 25.8000 130.900 90 946 480 26 38
1949293N12142 1949 94 WP MM PATRICIA 1949-10-27 03:00:00 TS 26.9628 131.925 main 461 401 P_P______PPP__ WP171949 26.9263 131.866 82 1 27.2571 132.095 6 121 937 26.9263 131.866 TC 82 26.7782 131.931 4 88 26.9263 131.866 82 948 480 30 42
1949293N12142 1949 94 WP MM PATRICIA 1949-10-27 06:00:00 TS 28.0902 133.158 main 403 385 O_O______OPO__ jtwc_wp WP171949 28.1000 133.100 75 1 28.3000 133.300 6 116 940 28.1000 133.100 TC 75 27.8510 133.188 4 87 28.1000 133.100 75 951 480 32 48
1949293N12142 1949 94 WP MM PATRICIA 1949-10-27 09:00:00 TS 29.0936 134.568 main 400 379 P_P______PPP__ WP171949 29.1062 134.542 80 1 29.1763 134.588 6 111 942 29.1062 134.542 TC 80 28.9728 134.626 4 86 29.1062 134.542 80 953 450 33 53
1949293N12142 1949 94 WP MM PATRICIA 1949-10-27 12:00:00 TS 30.1000 136.160 main 370 307 O_O______OOO__ jtwc_wp WP171949 30.1000 136.200 85 2 30.1000 136.000 6 106 945 30.1000 136.200 TC 85 30.1000 136.200 4 85 30.1000 136.200 85 956 420 35 53
1949293N12142 1949 94 WP MM PATRICIA 1949-10-27 15:00:00 TS 31.1923 137.838 main 308 264 P_P______PPP__ WP171949 31.2002 138.028 87 2 31.2188 137.395 6 106 947 31.2002 138.028 TC 87 31.1421 137.711 4 83 31.2002 138.028 87 959 450 37 53
1949293N12142 1949 94 WP MM PATRICIA 1949-10-27 18:00:00 TS 32.3164 139.632 main 266 214 O_O______OPO__ jtwc_wp WP171949 32.3000 139.900 90 2 32.5000 139.100 6 106 950 32.3000 139.900 TC 90 32.1818 139.361 4 82 32.3000 139.900 90 962 480 38 54
1949293N12142 1949 94 WP MM PATRICIA 1949-10-27 21:00:00 TS 33.4044 141.434 main 216 214 P_P______PPP__ WP171949 33.3227 141.540 85 2 33.8229 141.343 6 106 951 33.3227 141.540 TC 85 33.2313 141.204 4 81 33.3227 141.540 85 965 450 39 56
1949293N12142 1949 94 WP MM PATRICIA 1949-10-28 00:00:00 TS 34.5000 143.440 main 263 263 O_O______OOO__ jtwc_wp WP171949 34.3000 143.300 80 1 35.3000 144.000 6 106 952 34.3000 143.300 TC 80 34.3000 143.300 4 80 34.3000 143.300 80 968 420 42 59
1949293N12142 1949 94 WP MM PATRICIA 1949-10-28 03:00:00 TS 35.5895 145.775 main 441 441 P_P______PPP__ WP171949 35.1622 145.390 72 1 37.0728 147.006 6 101 953 35.1622 145.390 TC 72 35.3879 145.698 4 71 35.1622 145.390 72 970 450 46 61
1949293N12142 1949 94 WP MM PATRICIA 1949-10-28 06:00:00 TS 36.7395 148.445 main 631 631 O_O______OPO__ jtwc_wp WP171949 36.1000 147.900 65 1 38.7000 150.000 5 97 955 36.1000 147.900 TC 65 36.4703 148.371 4 62 36.1000 147.900 65 973 480 51 62
1949293N12142 1949 94 WP MM PATRICIA 1949-10-28 09:00:00 TS 37.9610 151.459 main 767 767 P_P______PPP__ WP171949 37.3377 151.150 55 0 39.7812 152.445 5 97 956 37.3377 151.150 TC 55 37.5169 151.262 4 53 37.2577 150.919 55 975 510 52 63
1949293N12142 1949 94 WP MM PATRICIA 1949-10-28 12:00:00 TS 39.1000 154.386 main 818 812 O_O______OOO__ jtwc_wp WP171949 38.5000 154.300 45 0 40.6000 154.600 5 97 957 38.5000 154.300 TC 45 38.5000 154.300 2 45 38.5000 154.300 45 977 540 44 63
1949293N12142 1949 94 WP MM PATRICIA 1949-10-28 15:00:00 TS 39.9670 156.499 main 832 832 P_P______P____ WP171949 39.2799 156.385 45 0 41.3413 156.727 5 92 958 39.2799 156.385 TC 45 2 34 62
1949293N12142 1949 94 WP MM PATRICIA 1949-10-28 18:00:00 TS 40.7000 158.300 main 872 872 O_O______O____ jtwc_wp WP171949 40.0000 158.000 45 0 42.1000 158.900 5 87 960 40.0000 158.000 TC 45 2 33 60
1949293N12142 1949 94 WP MM PATRICIA 1949-10-28 21:00:00 TS 41.6346 160.312 main 934 934 P_P______P____ WP171949 40.9174 159.729 42 0 43.0690 161.480 5 82 962 40.9174 159.729 TC 42 2 35 59
1949293N12142 1949 94 WP MM PATRICIA 1949-10-29 00:00:00 MX 42.5333 162.333 main 984 978 O_O______O____ jtwc_wp WP171949 41.8000 161.500 40 0 44.0000 164.000 9 77 965 41.8000 161.500 TC 40 33 63
1949293N12142 1949 94 WP MM PATRICIA 1949-10-29 03:00:00 MX 43.1371 164.252 main 1013 1009 P_P______P____ WP171949 42.3816 163.439 47 0 44.6483 165.877 9 967 42.3816 163.439 TC 47 33 65
1949293N12142 1949 94 WP MM PATRICIA 1949-10-29 06:00:00 MX 43.9200 166.420 main 1055 1055 O_O______O____ jtwc_wp WP171949 43.0000 165.500 55 0 45.3000 167.800 9 970 43.0000 165.500 TC 55 40 62
1949293N12142 1949 94 WP MM PATRICIA 1949-10-29 09:00:00 MX 45.0394 169.123 main 1101 1101 P_P______P____ WP171949 43.9145 167.688 55 0 46.1643 170.559 9 972 43.9145 167.688 TC 55 46 60
1949293N12142 1949 94 WP MM PATRICIA 1949-10-29 12:00:00 MX 46.2000 172.100 main 1148 1148 O_O______O____ jtwc_wp WP171949 45.0000 170.000 55 0 47.0000 173.500 9 975 45.0000 170.000 TC 55 55 61
1949293N12142 1949 94 WP MM PATRICIA 1949-10-29 15:00:00 ET 47.6607 176.077 main 1203 1037 __P___________ WP171949 -1 47.6607 176.077 9 977 TC 47 65
1949293N12142 1949 94 WP MM PATRICIA 1949-10-29 18:00:00 ET 48.2000 178.400 main 1031 __O___________ -1 48.2000 178.400 9 980 33 71

デジタル台風データ・検索

IBTrACS Databaseについて

本データベースは、米国NOAAが公開する1842年以降の世界の熱帯低気圧のベストトラックデータアーカイブInternational Best Track Archive for Climate Stewardship (IBTrACS)を、ウェブで閲覧しやすい形式に変換したものです。

最終更新日:2021-10-25